Welcome to our Virtual Airline
Sign-in:

Flight MFC51101

  • Submitted By: James Smith
  • Departure Airport: Shishmaref (PASH)
  • Arrival Airport: Port Clarence CGS (KPC)
  • Aircraft: ()
  • Flight Time: 01.03.33
  • Date Submitted: 19/05/25
  • Route: STOP-OVER AT 1. TIN CITY LRRS (PATC), 2. BREVIG MISSION (KTS)
  • Status: Accepted
Flight Details
Gross Revenue:
(3 load / $ 132.00 per unit
$ 396.00
Fuel Cost:
(69.3996 fuel used @ 5.1 / unit)
$ 353.94

Additional Log Information:

View Log

FS[14:00] ----- Flight Opened -----
FS[14:00] Cigar Box - 1.1.4.0
FS[14:00] FS: Prepar3D V4
FS[14:00] FSUIPC: v5.151
FS[14:00] Flight Number: MFC51101
FS[14:00] FS Aircraft: AC500 N500MS VC
FS[14:00] FS Model: AC500
FS[14:00] FS Type: ROCKWELL
FS[14:00] Departure: PASH
FS[14:00] Arrival: KPC
FS[14:00] Flight Level: 2500
FS[14:00] Flight Type: H
FS[14:00] Passengers: 3
FS[14:00] FOB: 331 lbs
FS[14:00] Gate: n/a
FS[14:00] NOTE: Parking Brake Ignored
FS[14:00] Crash Detection: Disabled
FS[14:00] Engines: 2 Piston
FS[14:00] NOTE: Boarding has started
FS[14:00] Parking Brake: Engaged
FS[14:00] Light Data: Navigation ON
FS[14:00] Light Data: Beacon ON
FS[14:00] Light Data: Strobe lights ON
FS[14:00] Main Door Closed
FS[14:00] COM1: 123.00
FS[14:00] COM2: 127.80
FS[14:00] Transponder: 1200
FS[14:00] NAV1: 113.70
FS[14:00] NAV2: 116.80
FS[14:00] ADF1: 284.0
FS[14:00] ADF2: 240.0
FS[14:00] Navigation Mode: NAV
FS[14:00] Engine 1: Started
FS[14:00] Engine 2: Started
FS[14:00] Flaps: Position 1
FS[14:00] Parking Brake: Released
FS[14:00] NOTE: Taxi started
FS[14:01] NOTE: ----- TAKE OFF -----
FS[14:01] GS: 103 knots
FS[14:01] TAS: 108 knots
FS[14:01] IAS: 110 knots
FS[14:01] VS: 18 fpm
FS[14:01] FOB: 330 lbs
FS[14:01] Heading: 42°
FS[14:01] Pitch: 3°
FS[14:01] Bank: 0°
FS[14:01] Aircraft Weight: 4990.66 lbs
FS[14:01] Nearest Airport: PASH
FS[14:01] Distance: 0.04 miles
FS[14:01] Runway: 5 - PASH
FS[14:01] Ground Surface: Asphalt
FS[14:01] Ground Condition: Snow
FS[14:01] NOTE: Weather Report
FS[14:01] Wind Heading: 345°
FS[14:01] Wind Speed: 10 knots
FS[14:01] OAT: 10° C
FS[14:01] TAT: 11° C
FS[14:01] Precipitation: None
FS[14:01] Dew Point: 0° C
FS[14:01] Visibility: 62 miles
FS[14:01] METAR: PASH 251824Z AUTO 12006KT 1/2SM -SN FZFG OVC002 M01/M01 A3006 RMK AO2 P0000 FZRANO
FS[14:01] NOTE: Climb started
FS[14:01] Landing Gear: Retracted
FS[14:01] GS: 103 knots
FS[14:01] TAS: 109 knots
FS[14:01] IAS: 111 knots
FS[14:01] VS: 1166 fpm
FS[14:01] AGL: 53 ft
FS[14:01] AMSL: 62 ft
FS[14:01] View Mode: Virtual Cockpit
FS[14:01] Flaps: Position 0
FS[14:01] GS: 103 knots
FS[14:01] TAS: 113 knots
FS[14:01] IAS: 115 knots
FS[14:01] VS: 2024 fpm
FS[14:02] NOTE: TOC reached
FS[14:02] NOTE: Cruise started
FS[14:02] GS: 114 knots
FS[14:02] TAS: 109 knots
FS[14:02] IAS: 107 knots
FS[14:02] VS: 191 fpm
FS[14:02] FOB: 325 lbs
FS[14:02] Heading: 231°
FS[14:02] Pitch: 5°
FS[14:02] Bank: 0°
FS[14:02] Aircraft Weight: 4985.42 lbs
FS[14:05] COM1: 119.20
FS[14:13] COM1: 133.30
FS[14:15] Turbulence: Light
FS[14:16] Turbulence: None
FS[14:16] Recovery: Flight Saved
FS[14:23] NOTE: TOD reached
FS[14:23] NOTE: Descent started
FS[14:23] GS: 178 knots
FS[14:23] TAS: 171 knots
FS[14:23] IAS: 170 knots
FS[14:23] VS: -2351 fpm
FS[14:23] FOB: 263 lbs
FS[14:23] Heading: 186°
FS[14:23] Pitch: 7°
FS[14:23] Bank: 2°
FS[14:23] Aircraft Weight: 4923.53 lbs
FS[14:23] NOTE: On approach
FS[14:24] COM1: 126.20
FS[14:26] Flaps: Position 1
FS[14:26] GS: 143 knots
FS[14:26] TAS: 141 knots
FS[14:26] IAS: 141 knots
FS[14:26] VS: -1431 fpm
FS[14:26] Flaps: Position 2
FS[14:26] GS: 139 knots
FS[14:26] TAS: 136 knots
FS[14:26] IAS: 136 knots
FS[14:26] VS: -692 fpm
FS[14:27] Landing Gear: Extended
FS[14:27] GS: 81 knots
FS[14:27] TAS: 83 knots
FS[14:27] IAS: 84 knots
FS[14:27] VS: -331 fpm
FS[14:27] AGL: 675 ft
FS[14:27] AMSL: 675 ft
FS[14:28] Flaps: Position 3
FS[14:28] GS: 85 knots
FS[14:28] TAS: 89 knots
FS[14:28] IAS: 89 knots
FS[14:28] VS: -61 fpm
FS[14:28] Flaps: Position 4
FS[14:28] GS: 69 knots
FS[14:28] TAS: 79 knots
FS[14:28] IAS: 80 knots
FS[14:28] VS: -657 fpm
FS[14:29] NOTE: ----- LANDED -----
FS[14:29] Landing Rate: -313.73 fpm
FS[14:29] GS: 56 knots
FS[14:29] TAS: 67 knots
FS[14:29] IAS: 68 knots
FS[14:29] VS: -315 fpm
FS[14:29] FOB: 251 lbs
FS[14:29] Heading: 340°
FS[14:29] Pitch: 2°
FS[14:29] Bank: 0°
FS[14:29] Aircraft Weight: 4911.64 lbs
FS[14:29] Nearest Airport: PATC
FS[14:29] Distance: 0.42 miles
FS[14:29] Runway: 34 - PATC
FS[14:29] Ground Surface: Gravel
FS[14:29] Ground Condition: Snow
FS[14:29] NOTE: Weather Report
FS[14:29] Wind Heading: 347°
FS[14:29] Wind Speed: 10 knots
FS[14:29] OAT: 10° C
FS[14:29] TAT: 10° C
FS[14:29] Precipitation: None
FS[14:29] Dew Point: 0° C
FS[14:29] Visibility: 25 miles
FS[14:29] METAR: KPCD 251855Z AUTO 24014KT 10SM SCT042 BKN049 31/20 A3003 RMK AO2 T03050204KPCM 251855Z AUTO 09010G15KT 10SM CLR 34/19 A3012 RMK AO2KPCW 251855Z AUTO 25016KT 10SM FEW100 30/18 A2989 RMK AO2KPCZ 251855Z AUTO 23015G22KT 10SM CLR 29/14 A2980 RMK AO2 T02850135
FS[14:29] View Mode: Virtual Cockpit
FS[14:29] Flaps: Position 1
FS[14:29] Flaps: Position 0
FS[14:29] NOTE: Taxi started
FS[14:30] Parking Brake: Engaged
FS[14:30] NOTE: Arrived
FS[14:30] Engine 1: Stopped
FS[14:30] Engine 2: Stopped
FS[14:32] Engine 1: Started
FS[14:32] Engine 2: Started
FS[14:32] Flaps: Position 1
FS[14:32] Parking Brake: Released
FS[14:34] Landing Gear: Retracted
FS[14:34] GS: 110 knots
FS[14:34] TAS: 101 knots
FS[14:34] IAS: 102 knots
FS[14:34] VS: 1049 fpm
FS[14:34] AGL: 26 ft
FS[14:34] AMSL: 209 ft
FS[14:34] Flaps: Position 0
FS[14:34] GS: 104 knots
FS[14:34] TAS: 98 knots
FS[14:34] IAS: 99 knots
FS[14:34] VS: 1886 fpm
FS[14:34] View Mode: Virtual Cockpit
FS[14:36] COM1: 133.30
FS[14:38] FS: Paused
FS[14:38] FS: Unpaused
FS[14:38] Recovery: Flight Saved
FS[14:43] Flaps: Position 1
FS[14:43] GS: 116 knots
FS[14:43] TAS: 127 knots
FS[14:43] IAS: 127 knots
FS[14:43] VS: 95 fpm
FS[14:43] Flaps: Position 2
FS[14:43] GS: 114 knots
FS[14:43] TAS: 124 knots
FS[14:43] IAS: 124 knots
FS[14:43] VS: -22 fpm
FS[14:43] Landing Gear: Extended
FS[14:43] GS: 77 knots
FS[14:43] TAS: 89 knots
FS[14:43] IAS: 89 knots
FS[14:43] VS: -915 fpm
FS[14:43] AGL: 955 ft
FS[14:43] AMSL: 1056 ft
FS[14:43] Flaps: Position 3
FS[14:43] GS: 75 knots
FS[14:43] TAS: 86 knots
FS[14:43] IAS: 86 knots
FS[14:43] VS: -1074 fpm
FS[14:44] Flaps: Position 4
FS[14:44] GS: 79 knots
FS[14:44] TAS: 91 knots
FS[14:44] IAS: 92 knots
FS[14:44] VS: -630 fpm
FS[14:45] NOTE: ----- LANDED -----
FS[14:45] Landing Rate: -176.86 fpm
FS[14:45] GS: 58 knots
FS[14:45] TAS: 68 knots
FS[14:45] IAS: 69 knots
FS[14:45] VS: -178 fpm
FS[14:45] FOB: 217 lbs
FS[14:45] Heading: 355°
FS[14:45] Pitch: 3°
FS[14:45] Bank: 1°
FS[14:45] Aircraft Weight: 4877.46 lbs
FS[14:45] Nearest Airport: AK45
FS[14:45] Distance: 0.10 miles
FS[14:45] Runway: 35 - AK45
FS[14:45] Ground Surface: Gravel
FS[14:45] Ground Condition: Snow
FS[14:45] NOTE: Weather Report
FS[14:45] Wind Heading: 346°
FS[14:45] Wind Speed: 10 knots
FS[14:45] OAT: 10° C
FS[14:45] TAT: 10° C
FS[14:45] Precipitation: None
FS[14:45] Dew Point: 6° C
FS[14:45] Visibility: 25 miles
FS[14:45] METAR: KPCD 251855Z AUTO 24014KT 10SM SCT042 BKN049 31/20 A3003 RMK AO2 T03050204KPCM 251855Z AUTO 09010G15KT 10SM CLR 34/19 A3012 RMK AO2KPCW 251855Z AUTO 25016KT 10SM FEW100 30/18 A2989 RMK AO2KPCZ 251855Z AUTO 23015G22KT 10SM CLR 29/14 A2980 RMK AO2 T02850135
FS[14:45] View Mode: Virtual Cockpit
FS[14:45] Parking Brake: Engaged
FS[14:47] Flaps: Position 3
FS[14:47] Flaps: Position 1
FS[14:47] Flaps: Position 0
FS[14:47] Parking Brake: Released
FS[14:47] Landing Gear: Retracted
FS[14:47] GS: 112 knots
FS[14:47] TAS: 105 knots
FS[14:47] IAS: 106 knots
FS[14:47] VS: 1662 fpm
FS[14:47] AGL: 40 ft
FS[14:47] AMSL: 259 ft
FS[14:47] View Mode: Virtual Cockpit
FS[14:49] Turbulence: Light
FS[14:50] Turbulence: None
FS[14:51] COM1: 123.00
FS[14:55] Flaps: Position 1
FS[14:55] GS: 136 knots
FS[14:55] TAS: 138 knots
FS[14:55] IAS: 140 knots
FS[14:55] VS: -1044 fpm
FS[14:55] Flaps: Position 2
FS[14:55] GS: 126 knots
FS[14:55] TAS: 129 knots
FS[14:55] IAS: 130 knots
FS[14:55] VS: 64 fpm
FS[14:55] Landing Gear: Extended
FS[14:55] GS: 93 knots
FS[14:55] TAS: 93 knots
FS[14:55] IAS: 94 knots
FS[14:55] VS: -1041 fpm
FS[14:55] AGL: 466 ft
FS[14:55] AMSL: 492 ft
FS[14:55] Flaps: Position 3
FS[14:55] GS: 93 knots
FS[14:55] TAS: 93 knots
FS[14:55] IAS: 94 knots
FS[14:55] VS: -1041 fpm
FS[14:55] NOTE: ----- LANDED -----
FS[14:55] Landing Rate: -290.66 fpm
FS[14:55] GS: 68 knots
FS[14:55] TAS: 61 knots
FS[14:55] IAS: 62 knots
FS[14:55] VS: -264 fpm
FS[14:55] FOB: 195 lbs
FS[14:55] Heading: 119°
FS[14:55] Pitch: 9°
FS[14:55] Bank: 0°
FS[14:55] Aircraft Weight: 4855.23 lbs
FS[14:55] Nearest Airport: KTS
FS[14:55] Distance: 0.30 miles
FS[14:55] Runway: 11 - KTS
FS[14:55] Ground Surface:
FS[14:55] Ground Condition: Snow
FS[14:55] NOTE: Weather Report
FS[14:55] Wind Heading: 346°
FS[14:55] Wind Speed: 10 knots
FS[14:55] OAT: 10° C
FS[14:55] TAT: 11° C
FS[14:55] Precipitation: None
FS[14:55] Dew Point: 1° C
FS[14:55] Visibility: 25 miles
FS[14:55] METAR: KPCD 251855Z AUTO 24014KT 10SM SCT042 BKN049 31/20 A3003 RMK AO2 T03050204KPCM 251855Z AUTO 09010G15KT 10SM CLR 34/19 A3012 RMK AO2KPCW 251855Z AUTO 25016KT 10SM FEW100 30/18 A2989 RMK AO2KPCZ 251855Z AUTO 23015G22KT 10SM CLR 29/14 A2980 RMK AO2 T02850135
FS[14:55] View Mode: Virtual Cockpit
FS[14:56] Flaps: Position 2
FS[14:56] Flaps: Position 0
FS[14:57] Parking Brake: Engaged
FS[14:57] Engine 1: Stopped
FS[14:57] Engine 2: Stopped
FS[14:58] Flaps: Position 1
FS[14:58] Flaps: Position 2
FS[14:58] Engine 1: Started
FS[14:58] Engine 2: Started
FS[14:58] Flaps: Position 3
FS[14:58] Parking Brake: Released
FS[14:59] Landing Gear: Retracted
FS[14:59] GS: 93 knots
FS[14:59] TAS: 90 knots
FS[14:59] IAS: 92 knots
FS[14:59] VS: 1470 fpm
FS[14:59] AGL: 56 ft
FS[14:59] AMSL: 88 ft
FS[14:59] View Mode: Virtual Cockpit
FS[14:59] Flaps: Position 2
FS[14:59] GS: 87 knots
FS[14:59] TAS: 88 knots
FS[14:59] IAS: 88 knots
FS[14:59] VS: 1351 fpm
FS[14:59] Flaps: Position 1
FS[14:59] GS: 89 knots
FS[14:59] TAS: 89 knots
FS[14:59] IAS: 90 knots
FS[14:59] VS: 1216 fpm
FS[14:59] Flaps: Position 0
FS[14:59] GS: 91 knots
FS[14:59] TAS: 91 knots
FS[14:59] IAS: 91 knots
FS[14:59] VS: 1053 fpm
FS[15:01] COM1: 122.90
FS[15:03] Flaps: Position 1
FS[15:03] GS: 112 knots
FS[15:03] TAS: 113 knots
FS[15:03] IAS: 114 knots
FS[15:03] VS: -159 fpm
FS[15:03] Flaps: Position 2
FS[15:03] GS: 110 knots
FS[15:03] TAS: 110 knots
FS[15:03] IAS: 110 knots
FS[15:03] VS: -383 fpm
FS[15:03] Landing Gear: Extended
FS[15:03] GS: 89 knots
FS[15:03] TAS: 90 knots
FS[15:03] IAS: 90 knots
FS[15:03] VS: -1706 fpm
FS[15:03] AGL: 708 ft
FS[15:03] AMSL: 708 ft
FS[15:04] NOTE: ----- LANDED -----
FS[15:04] Landing Rate: -354.48 fpm
FS[15:04] GS: 73 knots
FS[15:04] TAS: 63 knots
FS[15:04] IAS: 64 knots
FS[15:04] VS: -334 fpm
FS[15:04] FOB: 178 lbs
FS[15:04] Heading: 156°
FS[15:04] Pitch: 8°
FS[15:04] Bank: 3°
FS[15:04] Aircraft Weight: 4838.99 lbs
FS[15:04] Nearest Airport: KPC
FS[15:04] Distance: 0.91 miles
FS[15:04] Runway: 16 - KPC
FS[15:04] Ground Surface: Long Grass
FS[15:04] Ground Condition: Snow
FS[15:04] NOTE: Weather Report
FS[15:04] Wind Heading: 346°
FS[15:04] Wind Speed: 10 knots
FS[15:04] OAT: 11° C
FS[15:04] TAT: 11° C
FS[15:04] Precipitation: None
FS[15:04] Dew Point: 1° C
FS[15:04] Visibility: 62 miles
FS[15:04] METAR: KPCD 251855Z AUTO 24014KT 10SM SCT042 BKN049 31/20 A3003 RMK AO2 T03050204KPCM 251855Z AUTO 09010G15KT 10SM CLR 34/19 A3012 RMK AO2KPCW 251855Z AUTO 25016KT 10SM FEW100 30/18 A2989 RMK AO2KPCZ 251855Z AUTO 23015G22KT 10SM CLR 29/14 A2980 RMK AO2 T02850135
FS[15:04] View Mode: Virtual Cockpit
FS[15:05] Flaps: Position 0
FS[15:06] Parking Brake: Engaged
FS[15:06] Engine 1: Stopped
FS[15:06] Engine 2: Stopped
FS[15:06] Gate: 1 - KPC
FS[15:06] NOTE: Flight Completed
FS[15:06] FS Aircraft: AC500 N500MS VC
FS[15:06] FS Model: AC500
FS[15:06] FS Type: ROCKWELL
FS[15:06] FOB: 178 lbs
FS[15:06] Fuel Used: 153 lbs
FS[15:06] Flight Time: 01:03:33
FS[15:06] Flight Time (Dawn): 00:00:00
FS[15:06] Flight Time (Day): 01:03:33
FS[15:06] Flight Time (Dusk): 00:00:00
FS[15:06] Flight Time (Night): 00:00:00
FS[15:06] Total Landings: 4
FS[15:06] MaxSim Rate: 0x
FS[15:06] Cigar Box - 1.1.4.0
FS[15:06] ----- Flight Closed -----

Route Map